Time;durP1;ratioP1;P1;durP2;ratioP2;P2;SDS_P1;SDS_P2;PMS_P1;PMS_P2;Temp;Humidity;BMP_temperature;BMP_pressure;BME280_temperature;BME280_humidity;BME280_pressure;Samples;Min_cycle;Max_cycle;Signal;HPM_P1;HPM_P2
2023/07/16 00:00:46;;;;;;;;;;;;;;;22.25;47.64;100835.03;4835087;29;124144;-75
2023/07/16 00:03:14;;;;;;;;;;;;;;;22.19;47.58;100841.00;4836507;29;116333;-75
2023/07/16 00:05:41;;;;;;;;;;;;;;;22.14;47.59;100835.16;4836496;29;114627;-75
2023/07/16 00:08:08;;;;;;;;;;;;;;;22.09;47.67;100834.75;4836714;29;124808;-74
2023/07/16 00:10:35;;;;;;;;;;;;;;;22.04;47.66;100835.19;4849412;28;124735;-75
2023/07/16 00:13:03;;;;;;;;;;;;;;;22.00;47.88;100846.41;4837304;29;114704;-75
2023/07/16 00:15:30;;;;;;;;;;;;;;;21.94;47.67;100848.69;4838319;29;114768;-75
2023/07/16 00:17:57;;;;;;;;;;;;;;;21.88;47.79;100838.44;4835977;29;124487;-74
2023/07/16 00:20:24;;;;;;;;;;;;;;;21.85;47.80;100838.75;4836158;29;125116;-75
2023/07/16 00:22:51;;;;;;;;;;;;;;;21.82;47.65;100843.59;4836686;29;114328;-75
2023/07/16 00:25:18;;;;;;;;;;;;;;;21.75;47.69;100846.81;4836211;29;114135;-75
2023/07/16 00:27:46;;;;;;;;;;;;;;;21.71;47.72;100847.25;4834533;29;124381;-75
2023/07/16 00:30:15;;;;;;;;;;;;;;;21.68;47.74;100842.16;4835162;29;125386;-75
2023/07/16 00:32:41;;;;;;;;;;;;;;;21.62;47.77;100848.09;4834948;29;114627;-74
2023/07/16 00:35:08;;;;;;;;;;;;;;;21.57;47.73;100846.69;4833585;29;113744;-75
2023/07/16 00:37:36;;;;;;;;;;;;;;;21.52;47.82;100850.81;4849937;28;123503;-75
2023/07/16 00:40:04;;;;;;;;;;;;;;;21.46;47.71;100848.66;4835638;29;123902;-75
2023/07/16 00:42:31;;;;;;;;;;;;;;;21.40;47.83;100850.06;4848956;28;113365;-75
2023/07/16 00:44:58;;;;;;;;;;;;;;;21.36;47.90;100854.00;4835551;29;114293;-74
2023/07/16 00:47:25;;;;;;;;;;;;;;;21.31;47.86;100846.34;4834407;29;125906;-75
2023/07/16 00:49:52;;;;;;;;;;;;;;;21.28;47.91;100845.75;4834620;29;123874;-74
2023/07/16 00:52:20;;;;;;;;;;;;;;;21.22;47.93;100846.31;4833325;29;114734;-75
2023/07/16 00:54:48;;;;;;;;;;;;;;;21.19;48.01;100848.31;4833629;29;113941;-74
2023/07/16 00:57:15;;;;;;;;;;;;;;;21.16;47.97;100848.56;4834490;29;124297;-75
2023/07/16 00:59:42;;;;;;;;;;;;;;;21.14;48.13;100850.56;4847855;28;124508;-74
2023/07/16 01:02:09;;;;;;;;;;;;;;;21.13;48.17;100848.84;4834821;29;114411;-74
2023/07/16 01:04:36;;;;;;;;;;;;;;;21.12;48.08;100855.22;4836058;29;113657;-74
2023/07/16 01:07:06;;;;;;;;;;;;;;;21.10;48.14;100854.50;4840468;29;123324;-75
2023/07/16 01:09:36;;;;;;;;;;;;;;;21.07;48.08;100848.53;4834311;29;124032;-75
2023/07/16 01:12:04;;;;;;;;;;;;;;;21.04;48.21;100849.69;4845714;28;115182;-74
2023/07/16 01:14:31;;;;;;;;;;;;;;;21.03;48.16;100847.97;4848713;28;113185;-74
2023/07/16 01:17:02;;;;;;;;;;;;;;;21.02;48.25;100846.28;4848142;28;123760;-74
2023/07/16 01:19:29;;;;;;;;;;;;;;;21.00;48.26;100848.22;4833803;29;124497;-75
2023/07/16 01:22:16;;;;;;;;;;;;;;;20.99;48.26;100852.78;4834851;29;114405;-75
2023/07/16 01:25:02;;;;;;;;;;;;;;;20.98;48.37;100852.91;4842547;28;113136;-75
2023/07/16 01:27:38;;;;;;;;;;;;;;;20.96;48.40;100852.19;4848629;28;123826;-74
2023/07/16 01:30:09;;;;;;;;;;;;;;;20.96;48.48;100852.19;4846480;28;123835;-74
2023/07/16 01:32:37;;;;;;;;;;;;;;;20.96;48.29;100846.81;4848367;28;114068;-75
2023/07/16 01:35:07;;;;;;;;;;;;;;;20.97;48.47;100848.53;4831616;29;113725;-75
2023/07/16 01:37:35;;;;;;;;;;;;;;;20.96;48.44;100854.88;4845886;28;126423;-75
2023/07/16 01:40:03;;;;;;;;;;;;;;;20.94;48.42;100848.78;4833388;29;125831;-75
2023/07/16 01:42:30;;;;;;;;;;;;;;;20.93;48.55;100836.31;4805494;28;1135728;-75
2023/07/16 01:44:57;;;;;;;;;;;;;;;20.93;48.50;100841.72;4835711;29;116171;-74
2023/07/16 01:47:30;;;;;;;;;;;;;;;20.92;48.50;100848.06;4849684;28;123563;-74
2023/07/16 01:49:57;;;;;;;;;;;;;;;20.91;48.58;100838.31;4849080;28;123617;-74
2023/07/16 01:52:24;;;;;;;;;;;;;;;20.90;48.59;100841.97;4835918;29;115024;-75
2023/07/16 01:54:51;;;;;;;;;;;;;;;20.91;48.54;100843.69;4834240;29;112801;-75
2023/07/16 01:57:21;;;;;;;;;;;;;;;20.89;48.61;100845.63;4836033;29;123491;-74
2023/07/16 01:59:47;;;;;;;;;;;;;;;20.89;48.68;100837.56;4849719;28;123154;-75
2023/07/16 02:02:14;;;;;;;;;;;;;;;20.89;48.62;100840.25;4834880;29;114608;-75
2023/07/16 02:04:41;;;;;;;;;;;;;;;20.89;48.56;100834.88;4852276;28;113168;-74
2023/07/16 02:07:08;;;;;;;;;;;;;;;20.88;48.75;100843.94;4837860;29;124115;-75
2023/07/16 02:09:35;;;;;;;;;;;;;;;20.86;48.76;100851.31;4837965;29;123684;-74
2023/07/16 02:12:03;;;;;;;;;;;;;;;20.86;48.69;100851.31;4835435;29;113657;-75
2023/07/16 02:14:30;;;;;;;;;;;;;;;20.85;48.78;100846.91;4852782;28;115203;-75
2023/07/16 02:16:57;;;;;;;;;;;;;;;20.84;48.72;100845.22;4836256;29;124377;-75
2023/07/16 02:19:25;;;;;;;;;;;;;;;20.83;48.75;100848.88;4850769;28;123657;-75
2023/07/16 02:21:55;;;;;;;;;;;;;;;20.82;48.75;100849.88;4851985;28;115525;-75
2023/07/16 02:24:22;;;;;;;;;;;;;;;20.79;48.77;100851.88;4823727;29;112724;-74
2023/07/16 02:26:51;;;;;;;;;;;;;;;20.77;48.76;100853.81;4851769;28;123848;-75
2023/07/16 02:29:17;;;;;;;;;;;;;;;20.75;48.74;100855.78;4837254;29;124036;-74
2023/07/16 02:31:46;;;;;;;;;;;;;;;20.72;48.90;100845.31;4836099;29;114791;-75
2023/07/16 02:34:13;;;;;;;;;;;;;;;20.71;48.92;100856.22;4838090;29;114724;-74
2023/07/16 02:36:40;;;;;;;;;;;;;;;20.68;48.86;100854.66;4850816;28;123188;-75
2023/07/16 02:39:07;;;;;;;;;;;;;;;20.65;48.90;100856.75;4836836;29;123453;-74
2023/07/16 02:41:34;;;;;;;;;;;;;;;20.62;49.05;100855.16;4851706;28;113483;-75
2023/07/16 02:44:05;;;;;;;;;;;;;;;20.62;49.03;100855.16;4834297;29;112655;-75
2023/07/16 02:46:32;;;;;;;;;;;;;;;20.60;49.04;100862.53;4838390;29;124024;-74
2023/07/16 02:49:00;;;;;;;;;;;;;;;20.58;49.13;100861.78;4838908;29;123016;-75
2023/07/16 02:51:27;;;;;;;;;;;;;;;20.56;49.11;100861.06;4850513;28;115435;-75
2023/07/16 02:53:53;;;;;;;;;;;;;;;20.54;49.08;100868.41;4852363;28;113878;-74
2023/07/16 02:56:20;;;;;;;;;;;;;;;20.52;49.16;100865.00;4836901;29;125037;-75
2023/07/16 02:58:47;;;;;;;;;;;;;;;20.51;49.05;100879.44;4837506;29;123723;-74
2023/07/16 03:01:15;;;;;;;;;;;;;;;20.50;49.15;100883.13;4852198;28;115168;-75
2023/07/16 03:03:42;;;;;;;;;;;;;;;20.48;49.24;100880.56;4838054;29;113358;-74
2023/07/16 03:06:10;;;;;;;;;;;;;;;20.47;49.19;100883.38;4852125;28;123677;-75
2023/07/16 03:08:37;;;;;;;;;;;;;;;20.43;49.24;100883.63;4837197;29;124833;-75
2023/07/16 03:11:04;;;;;;;;;;;;;;;20.41;49.13;100880.22;4837272;29;114703;-75
2023/07/16 03:13:31;;;;;;;;;;;;;;;20.40;49.24;100886.59;4831048;29;112850;-75
2023/07/16 03:15:57;;;;;;;;;;;;;;;20.38;49.17;100891.25;4836246;29;123656;-75
2023/07/16 03:18:32;;;;;;;;;;;;;;;20.36;49.28;100878.91;4851373;28;123617;-74
2023/07/16 03:20:59;;;;;;;;;;;;;;;20.33;49.29;100877.34;4836817;29;115050;-74
2023/07/16 03:23:26;;;;;;;;;;;;;;;20.32;49.28;100897.16;4835994;29;113926;-74
2023/07/16 03:25:53;;;;;;;;;;;;;;;20.30;49.33;100899.13;4845884;28;124018;-74
2023/07/16 03:28:20;;;;;;;;;;;;;;;20.27;49.21;100896.72;4851447;28;123158;-75
2023/07/16 03:30:48;;;;;;;;;;;;;;;20.23;49.25;100897.97;4851085;28;116118;-74
2023/07/16 03:33:15;;;;;;;;;;;;;;;20.20;49.30;100898.22;4836642;29;113937;-74
2023/07/16 03:35:43;;;;;;;;;;;;;;;20.19;49.51;100904.56;4831707;29;123512;-75
2023/07/16 03:38:10;;;;;;;;;;;;;;;20.15;49.45;100900.44;4851382;28;123009;-75
2023/07/16 03:40:38;;;;;;;;;;;;;;;20.14;49.41;100898.75;4847107;28;112845;-75
2023/07/16 03:43:06;;;;;;;;;;;;;;;20.13;49.52;100907.78;4847635;28;112913;-75
2023/07/16 03:45:35;;;;;;;;;;;;;;;20.10;49.46;100908.03;4850215;28;124737;-75
2023/07/16 03:48:02;;;;;;;;;;;;;;;20.07;49.38;100909.16;4848955;28;123442;-75
2023/07/16 03:50:30;;;;;;;;;;;;;;;20.03;49.40;100916.59;4847416;28;113875;-75
2023/07/16 03:52:57;;;;;;;;;;;;;;;20.01;49.46;100920.41;4837402;29;113982;-75
2023/07/16 03:55:24;;;;;;;;;;;;;;;19.96;49.47;100923.47;4837207;29;123386;-75
2023/07/16 03:57:51;;;;;;;;;;;;;;;19.95;49.50;100921.78;4836673;29;124897;-75
2023/07/16 04:00:18;;;;;;;;;;;;;;;19.90;49.56;100924.00;4850608;28;115395;-75
2023/07/16 04:02:49;;;;;;;;;;;;;;;19.89;49.52;100927.69;4836115;29;112952;-74
2023/07/16 04:05:17;;;;;;;;;;;;;;;19.88;49.48;100936.72;4850442;28;124477;-75
2023/07/16 04:07:47;;;;;;;;;;;;;;;19.85;49.48;100942.34;4837005;29;125086;-74
2023/07/16 04:10:14;;;;;;;;;;;;;;;19.83;49.53;100946.97;4835653;29;115864;-75
2023/07/16 04:12:41;;;;;;;;;;;;;;;19.82;49.50;100947.97;4837304;29;114943;-75
2023/07/16 04:15:11;;;;;;;;;;;;;;;19.81;49.64;100946.25;4836061;29;123800;-75
2023/07/16 04:17:38;;;;;;;;;;;;;;;19.78;49.45;100951.91;4830601;29;124277;-74
2023/07/16 04:20:06;;;;;;;;;;;;;;;19.77;49.51;100960.94;4849607;28;114142;-75
2023/07/16 04:22:34;;;;;;;;;;;;;;;19.76;49.65;100961.91;4837692;29;113906;-75
2023/07/16 04:25:01;;;;;;;;;;;;;;;19.73;49.54;100965.72;4836553;29;124360;-75
2023/07/16 04:27:28;;;;;;;;;;;;;;;19.71;49.62;100972.16;4843306;28;122142;-74
2023/07/16 04:29:55;;;;;;;;;;;;;;;19.69;49.73;100963.38;4839197;29;113005;-75
2023/07/16 04:32:22;;;;;;;;;;;;;;;19.67;49.53;100965.34;4837659;29;113807;-74
2023/07/16 04:34:49;;;;;;;;;;;;;;;19.63;49.64;100970.94;4830053;29;124408;-75
2023/07/16 04:37:16;;;;;;;;;;;;;;;19.61;49.68;100972.06;4836964;29;122944;-75
2023/07/16 04:39:43;;;;;;;;;;;;;;;19.60;49.92;100976.56;4835958;29;114457;-75
2023/07/16 04:42:10;;;;;;;;;;;;;;;19.59;49.56;100985.63;4836111;29;113437;-75
2023/07/16 04:44:37;;;;;;;;;;;;;;;19.56;49.75;100985.84;4834343;29;124932;-75
2023/07/16 04:47:04;;;;;;;;;;;;;;;19.55;49.62;100984.16;4850795;28;124926;-74
2023/07/16 04:49:31;;;;;;;;;;;;;;;19.55;49.66;100978.78;4834990;29;113407;-75
2023/07/16 04:51:58;;;;;;;;;;;;;;;19.55;49.69;100989.53;4836028;29;114224;-75
2023/07/16 04:54:25;;;;;;;;;;;;;;;19.56;49.94;100988.53;4836009;29;124244;-74
2023/07/16 04:56:52;;;;;;;;;;;;;;;19.60;49.86;100981.94;4835434;29;123836;-74
2023/07/16 04:59:19;;;;;;;;;;;;;;;19.61;49.94;100994.41;4835592;29;115229;-74
2023/07/16 05:01:46;;;;;;;;;;;;;;;19.65;50.22;100990.50;4837397;29;114592;-74
2023/07/16 05:04:13;;;;;;;;;;;;;;;19.70;50.09;100997.31;4850976;29;123032;-74
2023/07/16 05:06:40;;;;;;;;;;;;;;;19.73;50.08;100999.78;4832870;29;124179;-74
2023/07/16 05:09:07;;;;;;;;;;;;;;;19.76;50.05;101002.22;4836094;29;114324;-73
2023/07/16 05:11:34;;;;;;;;;;;;;;;19.78;49.98;101008.34;4849756;29;113912;-73
2023/07/16 05:14:01;;;;;;;;;;;;;;;19.79;49.91;101018.09;4838387;29;124990;-74
2023/07/16 05:16:28;;;;;;;;;;;;;;;19.79;49.78;101007.34;4841547;29;123724;-74
2023/07/16 05:18:56;;;;;;;;;;;;;;;19.81;49.82;101005.38;4847618;29;114944;-74
2023/07/16 05:21:23;;;;;;;;;;;;;;;19.81;49.77;101008.06;4847074;29;115097;-72
2023/07/16 05:23:50;;;;;;;;;;;;;;;19.80;49.87;101001.00;4846002;29;124084;-74
2023/07/16 05:26:17;;;;;;;;;;;;;;;19.81;49.95;101010.75;4838515;29;124501;-75
2023/07/16 05:28:44;;;;;;;;;;;;;;;19.83;49.85;101008.81;4835317;29;114586;-75
2023/07/16 05:31:11;;;;;;;;;;;;;;;19.83;49.70;101014.19;4836171;29;113043;-74
2023/07/16 05:33:38;;;;;;;;;;;;;;;19.84;49.84;101006.00;4837887;29;124960;-74
2023/07/16 05:36:05;;;;;;;;;;;;;;;19.86;49.73;101013.94;4837299;29;124431;-74
2023/07/16 05:38:32;;;;;;;;;;;;;;;19.87;49.80;101015.63;4839545;29;116335;-74
2023/07/16 05:41:00;;;;;;;;;;;;;;;19.88;49.77;101014.66;4843463;29;113395;-74
2023/07/16 05:43:28;;;;;;;;;;;;;;;19.90;49.75;101025.31;4846141;29;124275;-74
2023/07/16 05:46:15;;;;;;;;;;;;;;;19.91;49.72;101022.50;4844592;28;125006;-73
2023/07/16 05:48:42;;;;;;;;;;;;;;;19.94;49.78;101027.59;4835684;29;115959;-74
2023/07/16 05:51:09;;;;;;;;;;;;;;;19.97;49.58;101038.13;4849852;28;113829;-75
2023/07/16 05:53:36;;;;;;;;;;;;;;;19.99;49.65;101038.84;4849756;28;124648;-75
2023/07/16 05:56:03;;;;;;;;;;;;;;;20.03;49.73;101037.59;4834361;29;124214;-74
2023/07/16 05:58:30;;;;;;;;;;;;;;;20.08;49.78;101044.44;4834870;29;114149;-74
2023/07/16 06:00:57;;;;;;;;;;;;;;;20.12;49.68;101045.91;4834055;29;114112;-74
2023/07/16 06:03:24;;;;;;;;;;;;;;;20.14;49.63;101050.19;4833962;29;125657;-74
2023/07/16 06:05:51;;;;;;;;;;;;;;;20.16;49.58;101056.28;4835706;29;124190;-74
2023/07/16 06:08:18;;;;;;;;;;;;;;;20.20;49.78;101054.19;4849567;28;114981;-75
2023/07/16 06:10:45;;;;;;;;;;;;;;;20.25;49.76;101057.38;4849296;28;114290;-74
2023/07/16 06:13:12;;;;;;;;;;;;;;;20.31;49.76;101051.47;4843485;29;124573;-75
2023/07/16 06:15:39;;;;;;;;;;;;;;;20.35;49.68;101052.91;4833063;29;124467;-75
2023/07/16 06:18:06;;;;;;;;;;;;;;;20.42;49.67;101054.13;4848879;28;115085;-75
2023/07/16 06:20:33;;;;;;;;;;;;;;;20.50;49.77;101060.72;4826796;29;113957;-73
2023/07/16 06:23:00;;;;;;;;;;;;;;;20.58;49.66;101058.22;4824320;29;125308;-74
2023/07/16 06:25:27;;;;;;;;;;;;;;;20.66;49.73;101055.75;4841745;28;125266;-75
2023/07/16 06:27:54;;;;;;;;;;;;;;;20.75;49.69;101065.75;4848181;28;114418;-75
2023/07/16 06:30:21;;;;;;;;;;;;;;;20.83;49.70;101066.94;4848964;28;113670;-75
2023/07/16 06:32:48;;;;;;;;;;;;;;;20.92;49.65;101071.53;4849246;28;124447;-75
2023/07/16 06:35:15;;;;;;;;;;;;;;;21.00;49.71;101077.13;4834732;29;124022;-75
2023/07/16 06:37:42;;;;;;;;;;;;;;;21.10;49.63;101078.06;4834660;29;115493;-74
2023/07/16 06:40:09;;;;;;;;;;;;;;;21.19;49.58;101074.56;4834646;29;114444;-75
2023/07/16 06:42:36;;;;;;;;;;;;;;;21.30;49.46;101094.31;4834249;29;124030;-74
2023/07/16 06:45:03;;;;;;;;;;;;;;;21.39;49.59;101080.91;4831913;29;125791;-75
2023/07/16 06:47:30;;;;;;;;;;;;;;;21.47;49.58;101093.75;4847091;28;114518;-75
2023/07/16 06:49:57;;;;;;;;;;;;;;;21.55;49.43;101091.25;4835770;29;112878;-75
2023/07/16 06:52:27;;;;;;;;;;;;;;;21.65;49.39;101087.75;4838198;29;124370;-74
2023/07/16 06:54:54;;;;;;;;;;;;;;;21.76;49.59;101087.66;4852386;28;123650;-74
2023/07/16 06:57:21;;;;;;;;;;;;;;;21.86;49.28;101082.28;4837144;29;114620;-75
2023/07/16 06:59:48;;;;;;;;;;;;;;;21.95;49.37;101082.31;4837581;29;113696;-73
2023/07/16 07:02:16;;;;;;;;;;;;;;;22.04;49.24;101087.84;4840675;29;123598;-74
2023/07/16 07:04:43;;;;;;;;;;;;;;;22.09;49.21;101077.53;4834052;29;123483;-74
2023/07/16 07:07:10;;;;;;;;;;;;;;;22.19;49.37;101078.41;4838318;29;114528;-74
2023/07/16 07:09:37;;;;;;;;;;;;;;;22.30;49.33;101085.53;4836042;29;113283;-75
2023/07/16 07:12:04;;;;;;;;;;;;;;;22.42;49.22;101083.59;4837660;29;124445;-75
2023/07/16 07:14:32;;;;;;;;;;;;;;;22.51;49.25;101089.00;4837525;29;124376;-75
2023/07/16 07:17:00;;;;;;;;;;;;;;;22.62;49.14;101096.13;4845359;28;113656;-75
2023/07/16 07:19:27;;;;;;;;;;;;;;;22.74;49.21;101089.56;4852319;28;114138;-75
2023/07/16 07:21:53;;;;;;;;;;;;;;;22.82;49.04;101101.50;4837748;29;124923;-75
2023/07/16 07:24:20;;;;;;;;;;;;;;;22.92;49.01;101102.34;4837372;29;124938;-74
2023/07/16 07:26:47;;;;;;;;;;;;;;;22.99;48.92;101108.88;4836921;29;115095;-75
2023/07/16 07:29:14;;;;;;;;;;;;;;;23.05;48.90;101102.91;4835768;29;114380;-75
2023/07/16 07:31:41;;;;;;;;;;;;;;;23.16;48.95;101103.78;4837568;29;123261;-75
2023/07/16 07:34:08;;;;;;;;;;;;;;;23.28;49.10;101102.59;4850770;28;123631;-75
2023/07/16 07:36:35;;;;;;;;;;;;;;;23.40;48.95;101101.44;4837793;29;114264;-75
2023/07/16 07:39:02;;;;;;;;;;;;;;;23.54;48.92;101101.97;4837044;29;114524;-75
2023/07/16 07:41:29;;;;;;;;;;;;;;;23.65;48.71;101101.78;4837468;28;124654;-75
2023/07/16 07:43:56;;;;;;;;;;;;;;;23.74;48.62;101109.00;4837037;29;124722;-75
2023/07/16 07:46:23;;;;;;;;;;;;;;;23.79;48.70;101117.56;4848813;28;114210;-74
2023/07/16 07:48:50;;;;;;;;;;;;;;;23.84;48.64;101107.13;4834721;29;113821;-76
2023/07/16 07:51:17;;;;;;;;;;;;;;;23.95;48.92;101099.84;4837329;29;124479;-75
2023/07/16 07:53:44;;;;;;;;;;;;;;;24.05;48.62;101116.88;4841238;29;124114;-75
2023/07/16 07:56:11;;;;;;;;;;;;;;;24.12;48.58;101107.16;4837720;29;114835;-75
2023/07/16 07:58:40;;;;;;;;;;;;;;;24.21;48.34;101116.22;4837389;29;113625;-75
2023/07/16 08:01:07;;;;;;;;;;;;;;;24.32;48.51;101117.84;4830395;29;125047;-76
2023/07/16 08:03:34;;;;;;;;;;;;;;;24.46;48.40;101117.34;4837499;29;124481;-75
2023/07/16 08:06:02;;;;;;;;;;;;;;;24.55;48.43;101127.28;4852679;28;113781;-75
2023/07/16 08:08:29;;;;;;;;;;;;;;;24.55;48.04;101135.41;4837649;29;113879;-75
2023/07/16 08:10:56;;;;;;;;;;;;;;;24.48;47.72;101129.72;4836311;29;124960;-75
2023/07/16 08:13:22;;;;;;;;;;;;;;;24.39;47.71;101129.78;4850195;28;123926;-75
2023/07/16 08:15:49;;;;;;;;;;;;;;;24.31;47.93;101127.84;4828541;29;115517;-75
2023/07/16 08:18:16;;;;;;;;;;;;;;;24.28;47.89;101139.84;4834864;29;114628;-75
2023/07/16 08:20:43;;;;;;;;;;;;;;;24.28;47.94;101131.72;4836421;29;124588;-74
2023/07/16 08:23:10;;;;;;;;;;;;;;;24.34;48.18;101126.69;4835419;29;124662;-75
2023/07/16 08:25:37;;;;;;;;;;;;;;;24.47;48.36;101132.59;4836428;29;114109;-74
2023/07/16 08:28:04;;;;;;;;;;;;;;;24.61;48.13;101134.78;4836430;29;114410;-75
2023/07/16 08:30:32;;;;;;;;;;;;;;;24.72;48.22;101127.47;4835766;29;124352;-75
2023/07/16 08:32:59;;;;;;;;;;;;;;;24.78;47.93;101126.81;4835086;29;123712;-75
2023/07/16 08:35:26;;;;;;;;;;;;;;;24.87;48.05;101134.88;4836595;29;114611;-75
2023/07/16 08:37:53;;;;;;;;;;;;;;;24.92;47.79;101137.13;4834743;29;113359;-75
2023/07/16 08:40:20;;;;;;;;;;;;;;;24.97;47.71;101140.19;4835418;29;125162;-75
2023/07/16 08:42:48;;;;;;;;;;;;;;;25.00;47.76;101145.31;4840165;29;124619;-72
2023/07/16 08:45:18;;;;;;;;;;;;;;;25.03;47.84;101139.59;4836591;29;114844;-74
2023/07/16 08:47:49;;;;;;;;;;;;;;;25.10;47.87;101149.81;4830885;29;113898;-73
2023/07/16 08:50:16;;;;;;;;;;;;;;;25.14;47.77;101140.34;4835289;29;124447;-73
2023/07/16 08:52:43;;;;;;;;;;;;;;;25.20;47.58;101150.56;4835979;29;123397;-73
2023/07/16 08:55:10;;;;;;;;;;;;;;;25.21;47.37;101157.69;4836596;29;114703;-73
2023/07/16 08:57:38;;;;;;;;;;;;;;;25.20;47.34;101143.28;4836729;29;114567;-73
2023/07/16 09:00:06;;;;;;;;;;;;;;;25.21;47.54;101146.84;4835725;29;124146;-73
2023/07/16 09:02:33;;;;;;;;;;;;;;;25.19;47.44;101148.88;4834853;29;124879;-73
2023/07/16 09:05:00;;;;;;;;;;;;;;;25.18;47.40;101158.00;4849910;28;115464;-75
2023/07/16 09:07:28;;;;;;;;;;;;;;;25.21;47.30;101141.44;4836373;29;115158;-75
2023/07/16 09:09:59;;;;;;;;;;;;;;;25.25;47.23;101153.69;4835416;29;124126;-75
2023/07/16 09:12:27;;;;;;;;;;;;;;;25.33;47.52;101140.19;4849749;28;122905;-75
2023/07/16 09:14:54;;;;;;;;;;;;;;;25.39;47.51;101155.84;4834726;29;114614;-73
2023/07/16 09:17:24;;;;;;;;;;;;;;;25.47;47.31;101154.16;4834044;29;114559;-74
2023/07/16 09:19:52;;;;;;;;;;;;;;;25.49;47.18;101149.47;4834823;29;124750;-74
2023/07/16 09:22:19;;;;;;;;;;;;;;;25.57;47.11;101149.50;4832325;28;123079;-73
2023/07/16 09:24:47;;;;;;;;;;;;;;;25.65;47.26;101154.97;4835826;29;114223;-73
2023/07/16 09:27:14;;;;;;;;;;;;;;;25.69;47.24;101156.34;4836141;29;113846;-74
2023/07/16 09:29:41;;;;;;;;;;;;;;;25.68;47.06;101160.09;4838312;29;125016;-73
2023/07/16 09:32:08;;;;;;;;;;;;;;;25.68;47.09;101154.66;4836511;29;122961;-73
2023/07/16 09:34:35;;;;;;;;;;;;;;;25.74;47.27;101162.16;4842709;29;114707;-73
2023/07/16 09:37:04;;;;;;;;;;;;;;;25.74;46.79;101164.84;4836486;29;113313;-73
2023/07/16 09:39:31;;;;;;;;;;;;;;;25.71;46.89;101164.31;4834534;29;124399;-73
2023/07/16 09:41:58;;;;;;;;;;;;;;;25.68;46.72;101162.81;4833697;29;123708;-74
2023/07/16 09:44:25;;;;;;;;;;;;;;;25.69;46.98;101169.91;4835680;29;115645;-74
2023/07/16 09:46:52;;;;;;;;;;;;;;;25.70;46.91;101179.75;4848208;28;113240;-74
2023/07/16 09:49:19;;;;;;;;;;;;;;;25.72;46.90;101188.59;4834422;29;125397;-73
2023/07/16 09:51:47;;;;;;;;;;;;;;;25.72;46.99;101180.44;4835288;29;123958;-74
2023/07/16 09:54:17;;;;;;;;;;;;;;;25.72;46.71;101188.59;4834722;29;115804;-74
2023/07/16 09:56:46;;;;;;;;;;;;;;;25.74;46.86;101181.13;4842178;28;113908;-74
2023/07/16 09:59:17;;;;;;;;;;;;;;;25.67;46.63;101190.91;4834376;29;124872;-74
2023/07/16 10:01:44;;;;;;;;;;;;;;;25.61;46.58;101191.56;4833040;29;123270;-74
2023/07/16 10:04:16;;;;;;;;;;;;;;;25.59;46.49;101188.16;4835566;29;114363;-74
2023/07/16 10:06:53;;;;;;;;;;;;;;;25.55;46.89;101192.22;4833072;29;113332;-73
2023/07/16 10:09:35;;;;;;;;;;;;;;;25.51;46.50;101188.13;4834703;29;124967;-74
2023/07/16 10:12:11;;;;;;;;;;;;;;;25.48;46.88;101196.56;4847030;28;124553;-74
2023/07/16 10:14:39;;;;;;;;;;;;;;;25.45;46.62;101208.59;4835347;29;114382;-74
2023/07/16 10:17:06;;;;;;;;;;;;;;;25.41;46.75;101202.63;4833556;29;113781;-74
2023/07/16 10:19:46;;;;;;;;;;;;;;;25.39;46.56;101210.06;4841326;29;124244;-74
2023/07/16 10:22:13;;;;;;;;;;;;;;;25.39;46.50;101210.06;4849328;28;123848;-74
2023/07/16 10:24:40;;;;;;;;;;;;;;;25.40;46.77;101211.75;4835589;29;114566;-74
2023/07/16 10:27:07;;;;;;;;;;;;;;;25.41;46.41;101212.59;4831202;29;113557;-75
2023/07/16 10:29:36;;;;;;;;;;;;;;;25.38;46.51;101221.91;4829850;29;124201;-74
2023/07/16 10:32:04;;;;;;;;;;;;;;;25.38;46.35;101221.06;4826881;29;122627;-74
2023/07/16 10:34:31;;;;;;;;;;;;;;;25.37;46.55;101228.38;4836932;28;113303;-73
2023/07/16 10:36:58;;;;;;;;;;;;;;;25.38;46.76;101230.03;4827521;29;113590;-74
2023/07/16 10:39:25;;;;;;;;;;;;;;;25.43;46.34;101233.16;4846828;28;125463;-75
2023/07/16 10:41:53;;;;;;;;;;;;;;;25.45;46.53;101225.72;4836926;29;124467;-74
2023/07/16 10:44:20;;;;;;;;;;;;;;;25.51;46.43;101231.53;4851585;28;115732;-74
2023/07/16 10:46:47;;;;;;;;;;;;;;;25.52;46.34;101230.50;4837269;29;115585;-74
2023/07/16 10:49:14;;;;;;;;;;;;;;;25.55;46.27;101227.47;4832171;29;124408;-74
2023/07/16 10:51:41;;;;;;;;;;;;;;;25.59;46.42;101226.16;4850658;28;123372;-75
2023/07/16 10:54:08;;;;;;;;;;;;;;;25.66;46.46;101227.22;4837721;29;114442;-74
2023/07/16 10:56:36;;;;;;;;;;;;;;;25.77;46.58;101229.66;4833994;29;114167;-74
2023/07/16 10:59:03;;;;;;;;;;;;;;;25.90;46.39;101233.81;4849649;28;125204;-74
2023/07/16 11:01:33;;;;;;;;;;;;;;;25.96;46.31;101234.06;4835431;29;124015;-74
2023/07/16 11:04:01;;;;;;;;;;;;;;;26.06;46.48;101239.38;4852162;28;114190;-74
2023/07/16 11:06:28;;;;;;;;;;;;;;;26.13;46.26;101229.56;4834724;29;113467;-74
2023/07/16 11:09:05;;;;;;;;;;;;;;;26.18;46.07;101226.38;4839155;29;124970;-74
2023/07/16 11:11:32;;;;;;;;;;;;;;;26.23;46.22;101230.28;4836253;29;125391;-74
2023/07/16 11:13:59;;;;;;;;;;;;;;;26.29;46.28;101233.38;4837852;29;114628;-74
2023/07/16 11:16:25;;;;;;;;;;;;;;;26.34;45.92;101228.31;4837723;29;113817;-74
2023/07/16 11:18:53;;;;;;;;;;;;;;;26.42;46.30;101225.63;4835667;29;124248;-74
2023/07/16 11:21:19;;;;;;;;;;;;;;;26.57;45.98;101232.13;4839301;29;124185;-74
2023/07/16 11:23:46;;;;;;;;;;;;;;;26.71;46.11;101232.53;4836730;29;114595;-74
2023/07/16 11:26:14;;;;;;;;;;;;;;;26.83;46.30;101241.25;4847912;28;114568;-74
2023/07/16 11:28:42;;;;;;;;;;;;;;;26.93;46.16;101242.78;4836190;29;125226;-74
2023/07/16 11:31:16;;;;;;;;;;;;;;;26.96;45.79;101242.47;4834058;29;123716;-74
2023/07/16 11:33:46;;;;;;;;;;;;;;;26.97;45.89;101246.91;4847453;28;116820;-74
2023/07/16 11:36:13;;;;;;;;;;;;;;;26.98;45.65;101245.88;4850142;28;114373;-74
2023/07/16 11:38:41;;;;;;;;;;;;;;;26.94;45.46;101249.94;4851045;28;124337;-74
2023/07/16 11:41:08;;;;;;;;;;;;;;;26.90;45.29;101259.44;4831420;29;124589;-74
2023/07/16 11:43:38;;;;;;;;;;;;;;;26.85;45.43;101269.97;4837633;29;115117;-75
2023/07/16 11:46:14;;;;;;;;;;;;;;;26.77;45.57;101269.94;4849070;28;114362;-75
2023/07/16 11:48:42;;;;;;;;;;;;;;;26.72;45.32;101266.88;4834855;29;124371;-73
2023/07/16 11:51:09;;;;;;;;;;;;;;;26.73;45.57;101268.56;4832708;29;124279;-72
2023/07/16 11:53:36;;;;;;;;;;;;;;;26.74;45.39;101275.72;4836709;29;114287;-73
2023/07/16 11:56:06;;;;;;;;;;;;;;;26.75;45.61;101277.41;4836610;29;114042;-74
2023/07/16 11:58:33;;;;;;;;;;;;;;;26.75;45.62;101267.38;4835396;29;124367;-74
2023/07/16 12:01:00;;;;;;;;;;;;;;;26.78;45.55;101277.06;4833973;29;124307;-74
2023/07/16 12:03:27;;;;;;;;;;;;;;;26.78;45.48;101271.63;4836782;29;114807;-74
2023/07/16 12:05:54;;;;;;;;;;;;;;;26.77;45.25;101280.81;4836767;29;113159;-74
2023/07/16 12:08:21;;;;;;;;;;;;;;;26.76;45.49;101284.53;4850834;28;123585;-74
2023/07/16 12:10:48;;;;;;;;;;;;;;;26.72;45.38;101289.44;4847069;28;125497;-74
2023/07/16 12:13:15;;;;;;;;;;;;;;;26.66;45.39;101281.13;4836744;29;114667;-75
2023/07/16 12:15:42;;;;;;;;;;;;;;;26.63;45.20;101276.00;4837431;29;114308;-74
2023/07/16 12:18:09;;;;;;;;;;;;;;;26.63;45.23;101285.00;4834933;29;124119;-73
2023/07/16 12:20:36;;;;;;;;;;;;;;;26.66;45.63;101289.28;4833700;29;123449;-74
2023/07/16 12:23:03;;;;;;;;;;;;;;;26.68;45.26;101287.25;4840923;29;116291;-74
2023/07/16 12:25:30;;;;;;;;;;;;;;;26.69;45.23;101288.94;4831201;29;114899;-74
2023/07/16 12:27:57;;;;;;;;;;;;;;;26.74;45.47;101281.13;4833032;29;124158;-73